PWSweather.com
Personal Weather Stations
Station Observations
CANDIOTINO
Barrio Candioti Norte, Santa FeAR 3000

Barrio Candioti NorteSanta FeAR 3000

Lat: -31.632778, Lon: -60.695556

Elevation: 69

Station Type: WH-1081

http://www.eltiempoensantafe.com.ar

High Low Average
Temperature 103.1°F39.5°C 76.3°F24.6°C 86.9°F30.5°C
Dew Point 69.2°F20.7°C 47.7°F8.7°C 64.8°F18.2°C
Winds 9.2 mph 14.8 kmh 0.7 mph 1.1 kmh 4.0 mph SE6.4 kmh SE
Wind Gusts 12.1 mph19.5 kmh 4.5 mph7.2 kmh 8.0 mph12.9 kmh
Humidity 66% 16% 50%
Pressure 29.86 in1011.2 mb 29.74 in1007.1 mb -
Precipitation 0.00 in0.0 mm - -
Hour Temp Dew Point Humidity Winds Wind Gusts Pressure Precip Precip Rate Daily Precip Total
12:00 AM 79.5°F26.4°C 67.2°F19.6°C 66% 3.8 mph SSE6.1 kmh SSE 6.0 mph9.7 kmh 29.86 in1011.2 mb 0.00 in0.0 mm 0.00 in0.0 mm 0.00 in0.0 mm
12:15 AM 79.5°F26.4°C 67.2°F19.6°C 66% 3.8 mph SSE6.1 kmh SSE 8.3 mph13.4 kmh 29.86 in1011.2 mb 0.00 in0.0 mm 0.00 in0.0 mm 0.00 in0.0 mm
12:30 AM 79.5°F26.4°C 66.8°F19.3°C 65% 5.4 mph SSE8.7 kmh SSE 9.8 mph15.8 kmh 29.86 in1011.2 mb 0.00 in0.0 mm 0.00 in0.0 mm 0.00 in0.0 mm
12:45 AM 79.9°F26.6°C 66.7°F19.3°C 64% 4.5 mph SE7.2 kmh SE 8.3 mph13.4 kmh 29.86 in1011.2 mb 0.00 in0.0 mm 0.00 in0.0 mm 0.00 in0.0 mm
01:00 AM 80.1°F26.7°C 66.4°F19.1°C 63% 5.4 mph SSE8.7 kmh SSE 9.8 mph15.8 kmh 29.85 in1010.8 mb 0.00 in0.0 mm 0.00 in0.0 mm 0.00 in0.0 mm
01:15 AM 79.9°F26.6°C 67.1°F19.5°C 65% 4.5 mph S7.2 kmh S 6.0 mph9.7 kmh 29.85 in1010.8 mb 0.00 in0.0 mm 0.00 in0.0 mm 0.00 in0.0 mm
01:30 AM 79.5°F26.4°C 66.8°F19.3°C 65% 3.1 mph SSE5.0 kmh SSE 6.0 mph9.7 kmh 29.85 in1010.8 mb 0.00 in0.0 mm 0.00 in0.0 mm 0.00 in0.0 mm
01:45 AM 79.3°F26.3°C 65.7°F18.7°C 63% 3.1 mph SSE5.0 kmh SSE 8.3 mph13.4 kmh 29.85 in1010.8 mb 0.00 in0.0 mm 0.00 in0.0 mm 0.00 in0.0 mm
02:00 AM 79.9°F26.6°C 65.7°F18.7°C 62% 2.2 mph SSE3.5 kmh SSE 7.6 mph12.2 kmh 29.84 in1010.5 mb 0.00 in0.0 mm 0.00 in0.0 mm 0.00 in0.0 mm
02:15 AM 79.9°F26.6°C 65.3°F18.5°C 61% 3.8 mph SE6.1 kmh SE 6.9 mph11.1 kmh 29.83 in1010.2 mb 0.00 in0.0 mm 0.00 in0.0 mm 0.00 in0.0 mm
02:30 AM 80.2°F26.8°C 64.2°F17.9°C 58% 2.2 mph SE3.5 kmh SE 7.6 mph12.2 kmh 29.83 in1010.2 mb 0.00 in0.0 mm 0.00 in0.0 mm 0.00 in0.0 mm
02:45 AM 80.2°F26.8°C 64.2°F17.9°C 58% 3.1 mph SE5.0 kmh SE 9.2 mph14.8 kmh 29.83 in1010.2 mb 0.00 in0.0 mm 0.00 in0.0 mm 0.00 in0.0 mm
03:00 AM 79.7°F26.5°C 64.1°F17.8°C 59% 3.1 mph SE5.0 kmh SE 9.2 mph14.8 kmh 29.82 in1009.8 mb 0.00 in0.0 mm 0.00 in0.0 mm 0.00 in0.0 mm
03:15 AM 79.5°F26.4°C 63.5°F17.5°C 58% 3.1 mph SE5.0 kmh SE 7.6 mph12.2 kmh 29.82 in1009.8 mb 0.00 in0.0 mm 0.00 in0.0 mm 0.00 in0.0 mm
03:30 AM 79.0°F26.1°C 63.0°F17.2°C 58% 4.5 mph SE7.2 kmh SE 9.2 mph14.8 kmh 29.81 in1009.5 mb 0.00 in0.0 mm 0.00 in0.0 mm 0.00 in0.0 mm
03:45 AM 78.8°F26.0°C 63.3°F17.4°C 59% 2.2 mph SE3.5 kmh SE 5.4 mph8.7 kmh 29.82 in1009.8 mb 0.00 in0.0 mm 0.00 in0.0 mm 0.00 in0.0 mm
04:00 AM 78.6°F25.9°C 63.6°F17.6°C 60% 4.5 mph SE7.2 kmh SE 8.3 mph13.4 kmh 29.81 in1009.5 mb 0.00 in0.0 mm 0.00 in0.0 mm 0.00 in0.0 mm
04:15 AM 78.4°F25.8°C 63.4°F17.4°C 60% 3.1 mph ESE5.0 kmh ESE 8.3 mph13.4 kmh 29.81 in1009.5 mb 0.00 in0.0 mm 0.00 in0.0 mm 0.00 in0.0 mm
04:30 AM 78.3°F25.7°C 63.7°F17.6°C 61% 2.2 mph SE3.5 kmh SE 6.9 mph11.1 kmh 29.81 in1009.5 mb 0.00 in0.0 mm 0.00 in0.0 mm 0.00 in0.0 mm
04:45 AM 77.9°F25.5°C 63.9°F17.7°C 62% 1.6 mph SE2.6 kmh SE 6.0 mph9.7 kmh 29.81 in1009.5 mb 0.00 in0.0 mm 0.00 in0.0 mm 0.00 in0.0 mm
05:00 AM 77.7°F25.4°C 64.2°F17.9°C 63% 3.8 mph SE6.1 kmh SE 6.0 mph9.7 kmh 29.80 in1009.1 mb 0.00 in0.0 mm 0.00 in0.0 mm 0.00 in0.0 mm
05:15 AM 77.4°F25.2°C 63.8°F17.7°C 63% 0.7 mph ESE1.1 kmh ESE 6.0 mph9.7 kmh 29.81 in1009.5 mb 0.00 in0.0 mm 0.00 in0.0 mm 0.00 in0.0 mm
05:30 AM 77.0°F25.0°C 63.5°F17.5°C 63% 3.1 mph SE5.0 kmh SE 5.4 mph8.7 kmh 29.81 in1009.5 mb 0.00 in0.0 mm 0.00 in0.0 mm 0.00 in0.0 mm
05:45 AM 76.5°F24.7°C 63.9°F17.7°C 65% 1.6 mph SE2.6 kmh SE 6.9 mph11.1 kmh 29.81 in1009.5 mb 0.00 in0.0 mm 0.00 in0.0 mm 0.00 in0.0 mm
06:00 AM 76.3°F24.6°C 63.7°F17.6°C 65% 1.6 mph NE2.6 kmh NE 5.4 mph8.7 kmh 29.82 in1009.8 mb 0.00 in0.0 mm 0.00 in0.0 mm 0.00 in0.0 mm
06:15 AM 76.3°F24.6°C 63.7°F17.6°C 65% 2.2 mph SE3.5 kmh SE 4.5 mph7.2 kmh 29.82 in1009.8 mb 0.00 in0.0 mm 0.00 in0.0 mm 0.00 in0.0 mm
06:30 AM 76.5°F24.7°C 63.4°F17.4°C 64% 1.6 mph SE2.6 kmh SE 4.5 mph7.2 kmh 29.82 in1009.8 mb 0.00 in0.0 mm 0.00 in0.0 mm 0.00 in0.0 mm
06:45 AM 76.5°F24.7°C 63.9°F17.7°C 65% 2.2 mph SE3.5 kmh SE 5.4 mph8.7 kmh 29.83 in1010.2 mb 0.00 in0.0 mm 0.00 in0.0 mm 0.00 in0.0 mm
07:00 AM 77.0°F25.0°C 63.5°F17.5°C 63% 5.4 mph SE8.7 kmh SE 6.9 mph11.1 kmh 29.83 in1010.2 mb 0.00 in0.0 mm 0.00 in0.0 mm 0.00 in0.0 mm
07:15 AM 78.6°F25.9°C 65.0°F18.3°C 63% 3.8 mph SSE6.1 kmh SSE 6.0 mph9.7 kmh 29.83 in1010.2 mb 0.00 in0.0 mm 0.00 in0.0 mm 0.00 in0.0 mm
07:30 AM 79.3°F26.3°C 64.8°F18.2°C 61% 3.1 mph SE5.0 kmh SE 6.0 mph9.7 kmh 29.83 in1010.2 mb 0.00 in0.0 mm 0.00 in0.0 mm 0.00 in0.0 mm
07:45 AM 79.7°F26.5°C 64.1°F17.8°C 59% 3.1 mph SSE5.0 kmh SSE 7.6 mph12.2 kmh 29.83 in1010.2 mb 0.00 in0.0 mm 0.00 in0.0 mm 0.00 in0.0 mm
08:00 AM 79.3°F26.3°C 65.2°F18.4°C 62% 3.1 mph SSE5.0 kmh SSE 6.9 mph11.1 kmh 29.84 in1010.5 mb 0.00 in0.0 mm 0.00 in0.0 mm 0.00 in0.0 mm
08:15 AM 80.8°F27.1°C 65.6°F18.7°C 60% 2.2 mph SSE3.5 kmh SSE 6.0 mph9.7 kmh 29.84 in1010.5 mb 0.00 in0.0 mm 0.00 in0.0 mm 0.00 in0.0 mm
08:30 AM 82.6°F28.1°C 65.3°F18.5°C 56% 3.8 mph SE6.1 kmh SE 7.6 mph12.2 kmh 29.84 in1010.5 mb 0.00 in0.0 mm 0.00 in0.0 mm 0.00 in0.0 mm
08:45 AM 83.7°F28.7°C 66.4°F19.1°C 56% 3.8 mph SSE6.1 kmh SSE 6.0 mph9.7 kmh 29.84 in1010.5 mb 0.00 in0.0 mm 0.00 in0.0 mm 0.00 in0.0 mm
09:00 AM 86.5°F30.3°C 64.6°F18.1°C 48% 3.1 mph SE5.0 kmh SE 6.0 mph9.7 kmh 29.84 in1010.5 mb 0.00 in0.0 mm 0.00 in0.0 mm 0.00 in0.0 mm
09:15 AM 88.0°F31.1°C 64.7°F18.2°C 46% 5.4 mph SE8.7 kmh SE 7.6 mph12.2 kmh 29.85 in1010.8 mb 0.00 in0.0 mm 0.00 in0.0 mm 0.00 in0.0 mm
09:30 AM 84.7°F29.3°C 62.3°F16.8°C 47% 4.5 mph SE7.2 kmh SE 7.6 mph12.2 kmh 29.84 in1010.5 mb 0.00 in0.0 mm 0.00 in0.0 mm 0.00 in0.0 mm
09:45 AM 87.1°F30.6°C 63.8°F17.7°C 46% 2.2 mph SSE3.5 kmh SSE 6.9 mph11.1 kmh 29.84 in1010.5 mb 0.00 in0.0 mm 0.00 in0.0 mm 0.00 in0.0 mm
10:00 AM 86.5°F30.3°C 64.6°F18.1°C 48% 5.4 mph SE8.7 kmh SE 6.0 mph9.7 kmh 29.84 in1010.5 mb 0.00 in0.0 mm 0.00 in0.0 mm 0.00 in0.0 mm
10:15 AM 86.2°F30.1°C 64.8°F18.2°C 49% 3.1 mph SE5.0 kmh SE 7.6 mph12.2 kmh 29.84 in1010.5 mb 0.00 in0.0 mm 0.00 in0.0 mm 0.00 in0.0 mm
10:30 AM 86.0°F30.0°C 64.7°F18.2°C 49% 3.8 mph SSE6.1 kmh SSE 7.6 mph12.2 kmh 29.84 in1010.5 mb 0.00 in0.0 mm 0.00 in0.0 mm 0.00 in0.0 mm
10:45 AM 85.6°F29.8°C 64.3°F17.9°C 49% 4.5 mph SE7.2 kmh SE 9.2 mph14.8 kmh 29.84 in1010.5 mb 0.00 in0.0 mm 0.00 in0.0 mm 0.00 in0.0 mm
11:00 AM 87.8°F31.0°C 63.9°F17.7°C 45% 3.8 mph SE6.1 kmh SE 7.6 mph12.2 kmh 29.84 in1010.5 mb 0.00 in0.0 mm 0.00 in0.0 mm 0.00 in0.0 mm
11:15 AM 88.9°F31.6°C 64.9°F18.3°C 45% 3.8 mph SE6.1 kmh SE 6.9 mph11.1 kmh 29.84 in1010.5 mb 0.00 in0.0 mm 0.00 in0.0 mm 0.00 in0.0 mm
11:30 AM 90.1°F32.3°C 64.7°F18.2°C 43% 2.2 mph SE3.5 kmh SE 6.0 mph9.7 kmh 29.84 in1010.5 mb 0.00 in0.0 mm 0.00 in0.0 mm 0.00 in0.0 mm
11:45 AM 89.8°F32.1°C 63.7°F17.6°C 42% 3.1 mph SE5.0 kmh SE 8.3 mph13.4 kmh 29.83 in1010.2 mb 0.00 in0.0 mm 0.00 in0.0 mm 0.00 in0.0 mm
12:00 PM 90.1°F32.3°C 64.0°F17.8°C 42% 3.8 mph SSE6.1 kmh SSE 9.2 mph14.8 kmh 29.83 in1010.2 mb 0.00 in0.0 mm 0.00 in0.0 mm 0.00 in0.0 mm
12:15 PM 92.3°F33.5°C 66.0°F18.9°C 42% 3.1 mph SE5.0 kmh SE 7.6 mph12.2 kmh 29.82 in1009.8 mb 0.00 in0.0 mm 0.00 in0.0 mm 0.00 in0.0 mm
12:30 PM 92.8°F33.8°C 64.3°F17.9°C 39% 3.1 mph SE5.0 kmh SE 12.1 mph19.5 kmh 29.82 in1009.8 mb 0.00 in0.0 mm 0.00 in0.0 mm 0.00 in0.0 mm
12:45 PM 94.1°F34.5°C 63.1°F17.3°C 36% 0.7 mph SE1.1 kmh SE 7.6 mph12.2 kmh 29.81 in1009.5 mb 0.00 in0.0 mm 0.00 in0.0 mm 0.00 in0.0 mm
01:00 PM 95.7°F35.4°C 62.9°F17.2°C 34% 3.8 mph SE6.1 kmh SE 6.9 mph11.1 kmh 29.81 in1009.5 mb 0.00 in0.0 mm 0.00 in0.0 mm 0.00 in0.0 mm
01:15 PM 96.4°F35.8°C 63.6°F17.6°C 34% 3.1 mph ESE5.0 kmh ESE 7.6 mph12.2 kmh 29.80 in1009.1 mb 0.00 in0.0 mm 0.00 in0.0 mm 0.00 in0.0 mm
01:30 PM 97.3°F36.3°C 63.5°F17.5°C 33% 2.2 mph ENE3.5 kmh ENE 6.9 mph11.1 kmh 29.80 in1009.1 mb 0.00 in0.0 mm 0.00 in0.0 mm 0.00 in0.0 mm
01:45 PM 97.7°F36.5°C 62.9°F17.2°C 32% 3.8 mph SE6.1 kmh SE 6.9 mph11.1 kmh 29.79 in1008.8 mb 0.00 in0.0 mm 0.00 in0.0 mm 0.00 in0.0 mm
02:00 PM 97.7°F36.5°C 62.9°F17.2°C 32% 2.2 mph ENE3.5 kmh ENE 6.9 mph11.1 kmh 29.79 in1008.8 mb 0.00 in0.0 mm 0.00 in0.0 mm 0.00 in0.0 mm
02:15 PM 98.1°F36.7°C 62.3°F16.8°C 31% 5.4 mph ENE8.7 kmh ENE 6.9 mph11.1 kmh 29.79 in1008.8 mb 0.00 in0.0 mm 0.00 in0.0 mm 0.00 in0.0 mm
02:30 PM 98.4°F36.9°C 63.6°F17.6°C 32% 3.8 mph E6.1 kmh E 7.6 mph12.2 kmh 29.78 in1008.5 mb 0.00 in0.0 mm 0.00 in0.0 mm 0.00 in0.0 mm
02:45 PM 100.2°F37.9°C 61.3°F16.3°C 28% 3.8 mph E6.1 kmh E 6.0 mph9.7 kmh 29.79 in1008.8 mb 0.00 in0.0 mm 0.00 in0.0 mm 0.00 in0.0 mm
03:00 PM 99.9°F37.7°C 62.0°F16.7°C 29% 1.6 mph ESE2.6 kmh ESE 6.0 mph9.7 kmh 29.78 in1008.5 mb 0.00 in0.0 mm 0.00 in0.0 mm 0.00 in0.0 mm
03:15 PM 100.4°F38.0°C 56.0°F13.3°C 23% 2.2 mph NE3.5 kmh NE 6.9 mph11.1 kmh 29.78 in1008.5 mb 0.00 in0.0 mm 0.00 in0.0 mm 0.00 in0.0 mm
03:30 PM 100.4°F38.0°C 59.4°F15.2°C 26% 3.1 mph ENE5.0 kmh ENE 8.3 mph13.4 kmh 29.78 in1008.5 mb 0.00 in0.0 mm 0.00 in0.0 mm 0.00 in0.0 mm
03:45 PM 99.9°F37.7°C 56.7°F13.7°C 24% 0.7 mph SE1.1 kmh SE 7.6 mph12.2 kmh 29.78 in1008.5 mb 0.00 in0.0 mm 0.00 in0.0 mm 0.00 in0.0 mm
04:00 PM 102.4°F39.1°C 47.7°F8.7°C 16% 1.6 mph ESE2.6 kmh ESE 5.4 mph8.7 kmh 29.77 in1008.1 mb 0.00 in0.0 mm 0.00 in0.0 mm 0.00 in0.0 mm
04:15 PM 103.1°F39.5°C 59.4°F15.2°C 24% 1.6 mph NE2.6 kmh NE 5.4 mph8.7 kmh 29.78 in1008.5 mb 0.00 in0.0 mm 0.00 in0.0 mm 0.00 in0.0 mm
04:30 PM 98.4°F36.9°C 66.1°F18.9°C 35% 6.0 mph SSE9.7 kmh SSE 10.7 mph17.2 kmh 29.76 in1007.8 mb 0.00 in0.0 mm 0.00 in0.0 mm 0.00 in0.0 mm
04:45 PM 96.6°F35.9°C 65.4°F18.6°C 36% 4.5 mph SSE7.2 kmh SSE 11.4 mph18.3 kmh 29.76 in1007.8 mb 0.00 in0.0 mm 0.00 in0.0 mm 0.00 in0.0 mm
05:00 PM 97.3°F36.3°C 66.0°F18.9°C 36% 6.0 mph SSE9.7 kmh SSE 9.2 mph14.8 kmh 29.75 in1007.5 mb 0.00 in0.0 mm 0.00 in0.0 mm 0.00 in0.0 mm
05:15 PM 97.2°F36.2°C 65.0°F18.3°C 35% 6.9 mph SE11.1 kmh SE 11.4 mph18.3 kmh 29.75 in1007.5 mb 0.00 in0.0 mm 0.00 in0.0 mm 0.00 in0.0 mm
05:30 PM 97.0°F36.1°C 65.7°F18.7°C 36% 6.0 mph SE9.7 kmh SE 10.7 mph17.2 kmh 29.75 in1007.5 mb 0.00 in0.0 mm 0.00 in0.0 mm 0.00 in0.0 mm
06:00 PM 96.3°F35.7°C 67.4°F19.7°C 39% 9.2 mph SSE14.8 kmh SSE 11.4 mph18.3 kmh 29.75 in1007.5 mb 0.00 in0.0 mm 0.00 in0.0 mm 0.00 in0.0 mm
06:15 PM 96.6°F35.9°C 68.4°F20.2°C 40% 4.5 mph SE7.2 kmh SE 9.2 mph14.8 kmh 29.75 in1007.5 mb 0.00 in0.0 mm 0.00 in0.0 mm 0.00 in0.0 mm
06:30 PM 96.3°F35.7°C 68.1°F20.1°C 40% 4.5 mph S7.2 kmh S 9.2 mph14.8 kmh 29.74 in1007.1 mb 0.00 in0.0 mm 0.00 in0.0 mm 0.00 in0.0 mm
06:45 PM 94.8°F34.9°C 68.9°F20.5°C 43% 6.9 mph SSE11.1 kmh SSE 12.1 mph19.5 kmh 29.75 in1007.5 mb 0.00 in0.0 mm 0.00 in0.0 mm 0.00 in0.0 mm
07:00 PM 93.7°F34.3°C 68.6°F20.3°C 44% 5.4 mph S8.7 kmh S 10.7 mph17.2 kmh 29.75 in1007.5 mb 0.00 in0.0 mm 0.00 in0.0 mm 0.00 in0.0 mm
07:15 PM 93.6°F34.2°C 68.4°F20.2°C 44% 6.9 mph SSE11.1 kmh SSE 9.2 mph14.8 kmh 29.75 in1007.5 mb 0.00 in0.0 mm 0.00 in0.0 mm 0.00 in0.0 mm
07:30 PM 93.7°F34.3°C 68.6°F20.3°C 44% 2.2 mph S3.5 kmh S 9.8 mph15.8 kmh 29.76 in1007.8 mb 0.00 in0.0 mm 0.00 in0.0 mm 0.00 in0.0 mm
07:45 PM 90.5°F32.5°C 67.6°F19.8°C 47% 5.4 mph S8.7 kmh S 9.2 mph14.8 kmh 29.75 in1007.5 mb 0.00 in0.0 mm 0.00 in0.0 mm 0.00 in0.0 mm
08:00 PM 88.9°F31.6°C 69.0°F20.6°C 52% 3.8 mph S6.1 kmh S 8.3 mph13.4 kmh 29.75 in1007.5 mb 0.00 in0.0 mm 0.00 in0.0 mm 0.00 in0.0 mm
08:15 PM 88.0°F31.1°C 68.8°F20.4°C 53% 3.8 mph S6.1 kmh S 8.3 mph13.4 kmh 29.75 in1007.5 mb 0.00 in0.0 mm 0.00 in0.0 mm 0.00 in0.0 mm
08:30 PM 87.4°F30.8°C 68.8°F20.4°C 54% 4.5 mph S7.2 kmh S 9.2 mph14.8 kmh 29.76 in1007.8 mb 0.00 in0.0 mm 0.00 in0.0 mm 0.00 in0.0 mm
08:45 PM 87.3°F30.7°C 69.2°F20.7°C 55% 5.4 mph S8.7 kmh S 8.3 mph13.4 kmh 29.76 in1007.8 mb 0.00 in0.0 mm 0.00 in0.0 mm 0.00 in0.0 mm
09:00 PM 86.2°F30.1°C 68.7°F20.4°C 56% 5.4 mph S8.7 kmh S 10.7 mph17.2 kmh 29.75 in1007.5 mb 0.00 in0.0 mm 0.00 in0.0 mm 0.00 in0.0 mm
09:15 PM 85.6°F29.8°C 68.7°F20.4°C 57% 3.8 mph S6.1 kmh S 8.3 mph13.4 kmh 29.77 in1008.1 mb 0.00 in0.0 mm 0.00 in0.0 mm 0.00 in0.0 mm
09:30 PM 85.5°F29.7°C 68.5°F20.3°C 57% 3.1 mph SSE5.0 kmh SSE 6.9 mph11.1 kmh 29.77 in1008.1 mb 0.00 in0.0 mm 0.00 in0.0 mm 0.00 in0.0 mm
09:45 PM 85.3°F29.6°C 68.4°F20.2°C 57% 3.8 mph S6.1 kmh S 8.3 mph13.4 kmh 29.78 in1008.5 mb 0.00 in0.0 mm 0.00 in0.0 mm 0.00 in0.0 mm
10:00 PM 84.7°F29.3°C 67.9°F19.9°C 57% 3.1 mph SSE5.0 kmh SSE 6.0 mph9.7 kmh 29.78 in1008.5 mb 0.00 in0.0 mm 0.00 in0.0 mm 0.00 in0.0 mm
10:15 PM 84.6°F29.2°C 67.7°F19.8°C 57% 2.2 mph S3.5 kmh S 6.0 mph9.7 kmh 29.79 in1008.8 mb 0.00 in0.0 mm 0.00 in0.0 mm 0.00 in0.0 mm
10:30 PM 84.6°F29.2°C 67.7°F19.8°C 57% 7.6 mph SSE12.2 kmh SSE 9.8 mph15.8 kmh 29.79 in1008.8 mb 0.00 in0.0 mm 0.00 in0.0 mm 0.00 in0.0 mm
10:45 PM 84.7°F29.3°C 66.8°F19.3°C 55% 2.2 mph SSE3.5 kmh SSE 6.9 mph11.1 kmh 29.79 in1008.8 mb 0.00 in0.0 mm 0.00 in0.0 mm 0.00 in0.0 mm
11:00 PM 84.7°F29.3°C 66.3°F19.1°C 54% 4.5 mph S7.2 kmh S 6.9 mph11.1 kmh 29.79 in1008.8 mb 0.00 in0.0 mm 0.00 in0.0 mm 0.00 in0.0 mm
11:15 PM 84.6°F29.2°C 65.1°F18.4°C 52% 4.5 mph SSE7.2 kmh SSE 9.8 mph15.8 kmh 29.80 in1009.1 mb 0.00 in0.0 mm 0.00 in0.0 mm 0.00 in0.0 mm
11:30 PM 84.6°F29.2°C 63.9°F17.7°C 50% 4.5 mph S7.2 kmh S 8.3 mph13.4 kmh 29.80 in1009.1 mb 0.00 in0.0 mm 0.00 in0.0 mm 0.00 in0.0 mm
11:45 PM 84.4°F29.1°C 64.3°F17.9°C 51% 3.8 mph SSE6.1 kmh SSE 8.3 mph13.4 kmh 29.80 in1009.1 mb 0.00 in0.0 mm 0.00 in0.0 mm 0.00 in0.0 mm